Caribbean Princess — ZCDG8 — position and weather

sailwx.info

Track history (hours):
 
Tides and Currents Weather Stations Pressure Air Temp Water Temp Dewpoint Dewpoint Depression Visibility Wind Speed Wind Dir Waves Ship Positions

Caribbean Princess

Operator: Princess Cruises

Last reported at 2015-May-23 14:31 UTC. Time now 2015-May-23 14:58 UTC.
Position N 50°54' W 001°26'.

Type: Passenger vessel. MMSI: 310423000.

Date/timePositionNaut miles runAvg speedWind from/ knotsBaromVisibWave heightAir tempDewpointWater temp
2015-May-23 14:31N 50°54' W 001°26'0 0.0
2015-May-23 13:31N 50°54' W 001°26'0 0.0
2015-May-23 12:31N 50°54' W 001°26'0 0.0
2015-May-23 11:31N 50°54' W 001°26'0 0.0
2015-May-23 10:31N 50°54' W 001°26'0 0.0
2015-May-23 09:31N 50°54' W 001°26'0 0.0
2015-May-23 08:31N 50°54' W 001°26'0 0.0
2015-May-23 07:31N 50°54' W 001°26'0 0.0
2015-May-23 06:31N 50°54' W 001°26'0 0.0
2015-May-23 05:34N 50°54' W 001°26'8 7.9
2015-May-23 04:33N 50°48' W 001°18'1212.2
2015-May-23 03:33N 50°43' W 001°00'1010.2
2015-May-23 02:33N 50°33' W 001°03'1313.0
2015-May-23 01:33N 50°27' W 001°21'4816.0
2015-May-22 22:33N 50°10' W 002°31'1817.7
2015-May-22 21:33N 50°06' W 002°58'1818.3
2015-May-22 20:33N 50°01' W 003°26'52819.9
2015-May-21 18:00N 42°24' W 009°48'16519.1 360 / 451029.010.8 2.014.5 9.718.0
2015-May-21 09:23N 39°39' W 009°51'1720.2
2015-May-21 08:33N 39°23' W 009°53'2019.8
2015-May-21 07:33N 39°03' W 009°51'2019.9
2015-May-21 06:33N 38°43' W 009°51'2036.0
2015-May-21 06:00N 38°24' W 009°42'2 5.4 350 / 401022.610.8 2.014.011.217.0
2015-May-21 05:33N 38°24' W 009°45'2019.9
2015-May-21 04:33N 38°04' W 009°40'2019.5
2015-May-21 03:33N 37°45' W 009°35'2020.0
2015-May-21 02:33N 37°25' W 009°30'2719.8
2015-May-21 01:12N 36°59' W 009°23'1218.9
2015-May-21 00:33N 36°48' W 009°16'1918.9
2015-May-20 23:32N 36°39' W 008°55'2020.6
2015-May-20 22:33N 36°33' W 008°31'2120.6
2015-May-20 21:32N 36°28' W 008°06'12519.6
2015-May-20 15:09N 35°59' W 005°35'1017.3
2015-May-20 14:33N 36°03' W 005°23'6 0.7
2015-May-20 06:33N 36°09' W 005°22'7 6.6
2015-May-20 05:34N 36°05' W 005°15'11516.4
2015-May-19 22:33N 36°21' W 002°54'1616.6
2015-May-19 21:33N 36°24' W 002°34'1717.1
2015-May-19 20:33N 36°26' W 002°13'1817.3
2015-May-19 19:31N 36°35' W 001°54'1718.1
2015-May-19 18:33N 36°47' W 001°38'1917.8
2015-May-19 17:28N 37°00' W 001°20'1617.9
2015-May-19 16:33N 37°11' W 001°05'1817.8
2015-May-19 15:33N 37°24' W 000°49'1717.5
2015-May-19 14:33N 37°36' W 000°33'1818.1
2015-May-19 13:33N 37°50' W 000°19'1817.8
2015-May-19 12:33N 38°05' W 000°06'2118.7
2015-May-19 11:26N 38°23' E 000°07'36619.3
2015-May-18 16:27N 43°09' E 005°09'1314.8
2015-May-18 15:33N 43°21' E 005°18'1 1.2
2015-May-18 14:26N 43°21' E 005°20'0 0.0
2015-May-18 13:05N 43°21' E 005°20'0 0.0
2015-May-18 11:26N 43°21' E 005°20'0 0.0
2015-May-18 10:11N 43°21' E 005°20'0 0.0
2015-May-18 09:08N 43°21' E 005°20'0 0.0
2015-May-18 08:29N 43°21' E 005°20'0 0.0
2015-May-18 06:20N 43°21' E 005°20'1 1.6
2015-May-18 05:32N 43°21' E 005°18'9 8.7
2015-May-18 04:32N 43°14' E 005°11'4413.4
2015-May-18 01:16N 42°53' E 006°03'6315.5
2015-May-17 21:12N 43°18' E 007°22'1317.6
2015-May-17 20:29N 43°26' E 007°35'5117.5
2015-May-17 17:33N 44°00' E 008°28'1717.4
2015-May-17 16:33N 44°12' E 008°46'1413.5
2015-May-17 15:33N 44°23' E 008°56'2 1.5
2015-May-17 14:23N 44°25' E 008°55'0 0.0
2015-May-17 13:29N 44°25' E 008°55'0 0.0
2015-May-17 12:31N 44°25' E 008°55'0 0.0
2015-May-17 11:33N 44°25' E 008°55'0 0.0
2015-May-17 10:33N 44°25' E 008°55'0 0.0
2015-May-17 09:32N 44°25' E 008°55'0 0.0
2015-May-17 08:33N 44°25' E 008°55'0 0.0
2015-May-17 07:33N 44°25' E 008°55'0 0.0
2015-May-17 06:33N 44°25' E 008°55'0 0.0
2015-May-17 05:33N 44°25' E 008°55'1 0.8
2015-May-17 04:34N 44°24' E 008°55'8 7.5
2015-May-17 03:33N 44°17' E 008°59'1212.3
2015-May-17 02:33N 44°05' E 008°60'1312.9
2015-May-17 01:33N 43°52' E 008°59'1212.2
2015-May-17 00:33N 43°40' E 008°60'1211.9
2015-May-16 23:33N 43°28' E 008°60'9 8.8
2015-May-16 22:33N 43°22' E 009°10'1110.7
2015-May-16 21:33N 43°21' E 009°24'1010.3
2015-May-16 20:33N 43°16' E 009°37'1110.8
2015-May-16 19:33N 43°18' E 009°51'1111.0
2015-May-16 18:33N 43°24' E 010°04'1110.9
2015-May-16 17:33N 43°32' E 010°15'3 2.7
2015-May-16 16:31N 43°33' E 010°18'0 0.0
2015-May-16 15:28N 43°33' E 010°18'0 0.0
2015-May-16 14:32N 43°33' E 010°18'0 0.0
2015-May-16 13:31N 43°33' E 010°18'0 0.0
2015-May-16 12:31N 43°33' E 010°18'0 0.0
2015-May-16 11:33N 43°33' E 010°18'0 0.0
2015-May-16 10:33N 43°33' E 010°18'0 0.0
2015-May-16 09:33N 43°33' E 010°18'0 0.0
2015-May-16 08:31N 43°33' E 010°18'0 0.0
2015-May-16 07:32N 43°33' E 010°18'0 0.0
2015-May-16 06:29N 43°33' E 010°18'0 0.0
2015-May-16 05:32N 43°33' E 010°18'0 0.2
2015-May-16 04:33N 43°33' E 010°18'7 6.6
2015-May-16 03:33N 43°28' E 010°12'1212.4
2015-May-16 02:33N 43°16' E 010°09'1212.4
2015-May-16 01:33N 43°03' E 010°08'1512.8
2015-May-16 00:24N 42°49' E 010°03'1513.7
2015-May-15 23:20N 42°37' E 010°14'55 2.5
2015-May-15 01:18N 41°50' E 010°52'1418.5
2015-May-15 00:33N 41°44' E 010°35'129 7.0
2015-May-14 06:00N 41°42' E 007°42'12917.2 170 / 141015.810.8 0.519.017.421.0
2015-May-13 22:29N 41°28' E 004°51'3518.0
2015-May-13 20:31N 41°25' E 004°04'1918.0
2015-May-13 19:28N 41°23' E 003°39'1617.8
2015-May-13 18:33N 41°21' E 003°17'1817.7
2015-May-13 17:33N 41°19' E 002°54'1616.1
2015-May-13 16:33N 41°18' E 002°32'1716.5
2015-May-13 15:33N 41°18' E 002°10'  
Track history (hours):
 
Tides and Currents Weather Stations Pressure Air Temp Water Temp Dewpoint Dewpoint Depression Visibility Wind Speed Wind Dir Waves Ship Positions

Caribbean Princess

Operator: Princess Cruises

Last reported at 2015-May-23 14:31 UTC. Time now 2015-May-23 14:58 UTC.
Position N 50°54' W 001°26'.

Type: Passenger vessel. MMSI: 310423000.

Date/timePositionNaut miles runAvg speedWind from/ knotsBaromVisibWave heightAir tempDewpointWater temp
2015-May-23 14:31N 50°54' W 001°26'0 0.0
2015-May-23 13:31N 50°54' W 001°26'0 0.0
2015-May-23 12:31N 50°54' W 001°26'0 0.0
2015-May-23 11:31N 50°54' W 001°26'0 0.0
2015-May-23 10:31N 50°54' W 001°26'0 0.0
2015-May-23 09:31N 50°54' W 001°26'0 0.0
2015-May-23 08:31N 50°54' W 001°26'0 0.0
2015-May-23 07:31N 50°54' W 001°26'0 0.0
2015-May-23 06:31N 50°54' W 001°26'0 0.0
2015-May-23 05:34N 50°54' W 001°26'8 7.9
2015-May-23 04:33N 50°48' W 001°18'1212.2
2015-May-23 03:33N 50°43' W 001°00'1010.2
2015-May-23 02:33N 50°33' W 001°03'1313.0
2015-May-23 01:33N 50°27' W 001°21'4816.0
2015-May-22 22:33N 50°10' W 002°31'1817.7
2015-May-22 21:33N 50°06' W 002°58'1818.3
2015-May-22 20:33N 50°01' W 003°26'52819.9
2015-May-21 18:00N 42°24' W 009°48'16519.1 360 / 451029.010.8 2.014.5 9.718.0
2015-May-21 09:23N 39°39' W 009°51'1720.2
2015-May-21 08:33N 39°23' W 009°53'2019.8
2015-May-21 07:33N 39°03' W 009°51'2019.9
2015-May-21 06:33N 38°43' W 009°51'2036.0
2015-May-21 06:00N 38°24' W 009°42'2 5.4 350 / 401022.610.8 2.014.011.217.0
2015-May-21 05:33N 38°24' W 009°45'2019.9
2015-May-21 04:33N 38°04' W 009°40'2019.5
2015-May-21 03:33N 37°45' W 009°35'2020.0
2015-May-21 02:33N 37°25' W 009°30'2719.8
2015-May-21 01:12N 36°59' W 009°23'1218.9
2015-May-21 00:33N 36°48' W 009°16'1918.9
2015-May-20 23:32N 36°39' W 008°55'2020.6
2015-May-20 22:33N 36°33' W 008°31'2120.6
2015-May-20 21:32N 36°28' W 008°06'12519.6
2015-May-20 15:09N 35°59' W 005°35'1017.3
2015-May-20 14:33N 36°03' W 005°23'6 0.7
2015-May-20 06:33N 36°09' W 005°22'7 6.6
2015-May-20 05:34N 36°05' W 005°15'11516.4
2015-May-19 22:33N 36°21' W 002°54'1616.6
2015-May-19 21:33N 36°24' W 002°34'1717.1
2015-May-19 20:33N 36°26' W 002°13'1817.3
2015-May-19 19:31N 36°35' W 001°54'1718.1
2015-May-19 18:33N 36°47' W 001°38'1917.8
2015-May-19 17:28N 37°00' W 001°20'1617.9
2015-May-19 16:33N 37°11' W 001°05'1817.8
2015-May-19 15:33N 37°24' W 000°49'1717.5
2015-May-19 14:33N 37°36' W 000°33'1818.1
2015-May-19 13:33N 37°50' W 000°19'1817.8
2015-May-19 12:33N 38°05' W 000°06'2118.7
2015-May-19 11:26N 38°23' E 000°07'36619.3
2015-May-18 16:27N 43°09' E 005°09'1314.8
2015-May-18 15:33N 43°21' E 005°18'1 1.2
2015-May-18 14:26N 43°21' E 005°20'0 0.0
2015-May-18 13:05N 43°21' E 005°20'0 0.0
2015-May-18 11:26N 43°21' E 005°20'0 0.0
2015-May-18 10:11N 43°21' E 005°20'0 0.0
2015-May-18 09:08N 43°21' E 005°20'0 0.0
2015-May-18 08:29N 43°21' E 005°20'0 0.0
2015-May-18 06:20N 43°21' E 005°20'1 1.6
2015-May-18 05:32N 43°21' E 005°18'9 8.7
2015-May-18 04:32N 43°14' E 005°11'4413.4
2015-May-18 01:16N 42°53' E 006°03'6315.5
2015-May-17 21:12N 43°18' E 007°22'1317.6
2015-May-17 20:29N 43°26' E 007°35'5117.5
2015-May-17 17:33N 44°00' E 008°28'1717.4
2015-May-17 16:33N 44°12' E 008°46'1413.5
2015-May-17 15:33N 44°23' E 008°56'2 1.5
2015-May-17 14:23N 44°25' E 008°55'0 0.0
2015-May-17 13:29N 44°25' E 008°55'0 0.0
2015-May-17 12:31N 44°25' E 008°55'0 0.0
2015-May-17 11:33N 44°25' E 008°55'0 0.0
2015-May-17 10:33N 44°25' E 008°55'0 0.0
2015-May-17 09:32N 44°25' E 008°55'0 0.0
2015-May-17 08:33N 44°25' E 008°55'0 0.0
2015-May-17 07:33N 44°25' E 008°55'0 0.0
2015-May-17 06:33N 44°25' E 008°55'0 0.0
2015-May-17 05:33N 44°25' E 008°55'1 0.8
2015-May-17 04:34N 44°24' E 008°55'8 7.5
2015-May-17 03:33N 44°17' E 008°59'1212.3
2015-May-17 02:33N 44°05' E 008°60'1312.9
2015-May-17 01:33N 43°52' E 008°59'1212.2
2015-May-17 00:33N 43°40' E 008°60'1211.9
2015-May-16 23:33N 43°28' E 008°60'9 8.8
2015-May-16 22:33N 43°22' E 009°10'1110.7
2015-May-16 21:33N 43°21' E 009°24'1010.3
2015-May-16 20:33N 43°16' E 009°37'1110.8
2015-May-16 19:33N 43°18' E 009°51'1111.0
2015-May-16 18:33N 43°24' E 010°04'1110.9
2015-May-16 17:33N 43°32' E 010°15'3 2.7
2015-May-16 16:31N 43°33' E 010°18'0 0.0
2015-May-16 15:28N 43°33' E 010°18'0 0.0
2015-May-16 14:32N 43°33' E 010°18'0 0.0
2015-May-16 13:31N 43°33' E 010°18'0 0.0
2015-May-16 12:31N 43°33' E 010°18'0 0.0
2015-May-16 11:33N 43°33' E 010°18'0 0.0
2015-May-16 10:33N 43°33' E 010°18'0 0.0
2015-May-16 09:33N 43°33' E 010°18'0 0.0
2015-May-16 08:31N 43°33' E 010°18'0 0.0
2015-May-16 07:32N 43°33' E 010°18'0 0.0
2015-May-16 06:29N 43°33' E 010°18'0 0.0
2015-May-16 05:32N 43°33' E 010°18'0 0.2
2015-May-16 04:33N 43°33' E 010°18'7 6.6
2015-May-16 03:33N 43°28' E 010°12'1212.4
2015-May-16 02:33N 43°16' E 010°09'1212.4
2015-May-16 01:33N 43°03' E 010°08'1512.8
2015-May-16 00:24N 42°49' E 010°03'1513.7
2015-May-15 23:20N 42°37' E 010°14'55 2.5
2015-May-15 01:18N 41°50' E 010°52'1418.5
2015-May-15 00:33N 41°44' E 010°35'129 7.0
2015-May-14 06:00N 41°42' E 007°42'12917.2 170 / 141015.810.8 0.519.017.421.0
2015-May-13 22:29N 41°28' E 004°51'3518.0
2015-May-13 20:31N 41°25' E 004°04'1918.0
2015-May-13 19:28N 41°23' E 003°39'1617.8
2015-May-13 18:33N 41°21' E 003°17'1817.7
2015-May-13 17:33N 41°19' E 002°54'1616.1
2015-May-13 16:33N 41°18' E 002°32'1716.5
2015-May-13 15:33N 41°18' E 002°10'  

Dump ship's entire track history